Impacts TAF Board INFO
FOR SITUATIONAL AWARENESS. NOT TO BE USED FOR FLIGHT PLANNING PURPOSES.
IDs:

KTOI - Troy Muni, AL, US

Issued at 1905 UTC 18 Feb 2018
Updated at 2335 UTC 18 Feb 2018
Potential Impact None Slight Moderate High
Time<<19/12Z 19/13Z 19/14Z 19/15Z 19/16Z 19/17Z 19/18Z 19/19Z 19/20Z 19/21Z 19/22Z 19/23Z 20/00Z>>
Type PRVL PRVL PRVL PRVL PRVL PRVL
VIS 4 4 >6 >6 >6 >6
CIG 10 10 -- -- -- --
Cover OVC OVC SCT SCT SCT SCT
FltCat MVFR MVFR VFR VFR VFR VFR
WX BR BR -- -- -- --
WDir 170 170 160 160 160 160
WSpd 3 3 5 5 5 5
WGst -- -- -- -- -- --

Raw TAF
KTOI 181905Z 1819/1918 11006KT P6SM SCT025
  FM190100 12002KT 5SM BR SCT040
  FM191000 17003KT 4SM BR OVC010
  FM191400 16005KT P6SM SCT025


METAR Board
Radar Display
Forecast Discussion

FOR SITUATIONAL AWARENESS. NOT TO BE USED FOR FLIGHT PLANNING PURPOSES.